createdAt,value
2024-04-02T00:03:56.593Z,86.43
2024-04-02T00:09:21.873Z,86.45
2024-04-02T00:14:47.097Z,86.75
2024-04-02T00:20:12.350Z,86.83
2024-04-02T00:25:37.896Z,86.62
2024-04-02T00:31:03.225Z,86.57
2024-04-02T00:36:29.485Z,85.95
2024-04-02T00:41:57.293Z,85.42
2024-04-02T00:47:15.608Z,84.94
2024-04-02T00:52:40.888Z,84.04
2024-04-02T00:58:06.860Z,83.30
2024-04-02T01:03:32.452Z,83.12
2024-04-02T01:08:56.328Z,83.01
2024-04-02T01:14:22.694Z,83.24
2024-04-02T01:19:40.604Z,83.43
2024-04-02T01:25:16.497Z,83.96
2024-04-02T01:30:41.746Z,84.09
2024-04-02T01:36:06.987Z,84.42
2024-04-02T01:41:32.560Z,84.48
2024-04-02T01:46:57.845Z,84.45
2024-04-02T01:52:23.121Z,84.50
2024-04-02T01:57:48.662Z,84.56
2024-04-02T02:03:13.710Z,84.45
2024-04-02T02:08:39.128Z,84.71
2024-04-02T02:14:04.391Z,84.94
2024-04-02T02:19:29.633Z,84.93
2024-04-02T02:24:54.940Z,85.08
2024-04-02T02:30:20.284Z,85.26
2024-04-02T02:35:44.208Z,85.62
2024-04-02T02:41:09.430Z,85.47
2024-04-02T02:46:34.731Z,86.09
2024-04-02T02:51:59.979Z,85.94
2024-04-02T02:57:25.721Z,86.93
2024-04-02T03:02:50.980Z,87.18
2024-04-02T03:08:16.283Z,87.39
2024-04-02T03:13:41.588Z,87.68
2024-04-02T03:19:06.824Z,88.21
2024-04-02T03:24:32.099Z,88.96
2024-04-02T03:29:57.356Z,89.30
2024-04-02T03:35:22.616Z,89.64
2024-04-02T03:40:46.481Z,90.03
2024-04-02T03:46:11.821Z,90.42
2024-04-02T03:51:37.755Z,90.37
2024-04-02T03:57:03.988Z,90.48
2024-04-02T04:02:29.330Z,90.51
2024-04-02T04:07:54.611Z,90.47
2024-04-02T04:13:19.850Z,91.05
2024-04-02T04:18:46.523Z,90.76
2024-04-02T04:24:11.861Z,91.30
2024-04-02T04:29:37.200Z,91.53
2024-04-02T04:35:02.444Z,91.54
2024-04-02T04:40:30.288Z,92.03
2024-04-02T04:45:55.685Z,92.35
2024-04-02T04:51:17.946Z,93.15
2024-04-02T04:56:43.225Z,93.78
2024-04-02T05:02:08.487Z,93.85
2024-04-02T05:07:45.045Z,93.66
2024-04-02T05:13:10.356Z,93.56
2024-04-02T05:18:36.664Z,93.85
2024-04-02T05:24:02.069Z,94.46
2024-04-02T05:29:27.336Z,94.25
2024-04-02T05:34:52.561Z,94.63
2024-04-02T05:40:17.895Z,94.93
2024-04-02T05:45:43.200Z,94.79
2024-04-02T05:51:15.890Z,94.62
2024-04-02T05:56:41.600Z,94.61
2024-04-02T06:02:06.923Z,94.44
2024-04-02T06:07:32.215Z,93.59
2024-04-02T06:12:57.611Z,92.11
2024-04-02T06:18:16.357Z,90.66
2024-04-02T06:23:41.623Z,89.71
2024-04-02T06:29:07.092Z,87.89
2024-04-02T06:34:32.523Z,86.27
2024-04-02T06:39:59.040Z,86.18
2024-04-02T06:45:24.961Z,85.46
2024-04-02T06:50:50.232Z,85.63
2024-04-02T06:56:15.774Z,84.58
2024-04-02T07:01:41.101Z,83.82
2024-04-02T07:07:06.377Z,83.69
2024-04-02T07:12:31.911Z,83.15
2024-04-02T07:17:57.208Z,82.95
2024-04-02T07:23:22.581Z,82.44
2024-04-02T07:28:48.406Z,81.75
2024-04-02T07:34:13.854Z,81.83
2024-04-02T07:39:39.117Z,81.87
2024-04-02T07:45:05.506Z,80.29
2024-04-02T07:50:31.133Z,80.16
2024-04-02T07:55:58.241Z,79.48
2024-04-02T08:01:23.883Z,79.93
2024-04-02T08:06:49.104Z,79.00
2024-04-02T08:12:14.481Z,79.53
2024-04-02T08:17:40.030Z,79.01
2024-04-02T08:22:59.032Z,79.03
2024-04-02T08:28:24.621Z,79.82
2024-04-02T08:33:50.127Z,79.43
2024-04-02T08:39:15.401Z,77.73
2024-04-02T08:44:40.804Z,77.36
2024-04-02T08:50:07.717Z,77.42
2024-04-02T08:55:25.329Z,76.39
2024-04-02T09:00:51.687Z,75.84
2024-04-02T09:06:18.190Z,76.19
2024-04-02T09:11:43.836Z,75.82
2024-04-02T09:17:09.186Z,76.11
2024-04-02T09:22:34.406Z,75.78
2024-04-02T09:27:59.750Z,75.88
2024-04-02T09:33:25.507Z,75.36
2024-04-02T09:38:51.573Z,74.55
2024-04-02T09:44:18.467Z,74.47
2024-04-02T09:49:45.021Z,73.47
2024-04-02T09:55:12.397Z,73.70
2024-04-02T10:00:38.295Z,72.95
2024-04-02T10:06:05.961Z,72.78
2024-04-02T10:11:31.544Z,72.78
2024-04-02T10:17:03.089Z,71.72
2024-04-02T10:22:28.357Z,70.46
2024-04-02T10:27:56.514Z,69.93
2024-04-02T10:33:21.816Z,70.74
2024-04-02T10:38:32.754Z,69.81
2024-04-02T10:43:47.883Z,68.95
2024-04-02T10:49:16.444Z,68.46
2024-04-02T10:54:41.887Z,68.73
2024-04-02T10:59:58.135Z,68.46
2024-04-02T11:05:23.779Z,68.73
2024-04-02T11:10:49.085Z,69.19
2024-04-02T11:16:14.670Z,67.86
2024-04-02T11:21:41.111Z,67.60
2024-04-02T11:27:06.123Z,67.19
2024-04-02T11:32:31.522Z,67.12
2024-04-02T11:37:56.846Z,67.52
2024-04-02T11:43:12.009Z,67.65
2024-04-02T11:48:37.680Z,67.75
2024-04-02T11:54:02.974Z,67.86
2024-04-02T11:59:26.756Z,69.51
2024-04-02T12:04:42.026Z,68.77
2024-04-02T12:09:50.799Z,66.95
2024-04-02T12:15:15.555Z,66.39
2024-04-02T12:20:41.158Z,66.89
2024-04-02T12:26:06.597Z,67.98
2024-04-02T12:31:32.160Z,69.26
2024-04-02T12:36:57.588Z,71.14
2024-04-02T12:42:23.112Z,71.87
2024-04-02T12:47:48.441Z,71.19
2024-04-02T12:53:03.540Z,70.80
2024-04-02T12:58:25.034Z,70.82
2024-04-02T13:03:54.698Z,70.60
2024-04-02T13:09:19.971Z,69.37
2024-04-02T13:14:45.290Z,68.86
2024-04-02T13:19:59.014Z,67.45
2024-04-02T13:25:24.754Z,65.75
2024-04-02T13:30:50.712Z,65.60
2024-04-02T13:35:55.963Z,66.27
2024-04-02T13:41:22.764Z,65.88
2024-04-02T13:46:41.599Z,65.98
2024-04-02T13:51:56.797Z,65.65
2024-04-02T13:57:22.248Z,66.86
2024-04-02T14:02:47.617Z,69.64
2024-04-02T14:08:12.883Z,72.49
2024-04-02T14:13:38.555Z,71.68
2024-04-02T14:19:05.482Z,71.15
2024-04-02T14:24:30.907Z,71.56
2024-04-02T14:29:47.146Z,69.78
2024-04-02T14:35:12.486Z,69.29
2024-04-02T14:40:37.946Z,68.00
2024-04-02T14:45:55.798Z,67.95
2024-04-02T14:51:22.910Z,68.65
2024-04-02T14:56:48.176Z,69.37
2024-04-02T15:02:13.464Z,71.07
2024-04-02T15:07:38.860Z,74.24
2024-04-02T15:12:54.045Z,77.22
2024-04-02T15:18:09.676Z,78.97
2024-04-02T15:23:24.794Z,80.82
2024-04-02T15:28:42.597Z,81.93
2024-04-02T15:34:07.847Z,82.45
2024-04-02T15:39:33.264Z,82.62
2024-04-02T15:44:58.659Z,83.18
2024-04-02T15:50:24.354Z,83.58
2024-04-02T15:55:49.762Z,83.91
2024-04-02T16:01:20.629Z,83.98
2024-04-02T16:06:45.862Z,83.97
2024-04-02T16:12:11.156Z,83.99
2024-04-02T16:17:36.528Z,84.23
2024-04-02T16:23:02.132Z,83.63
2024-04-02T16:28:28.372Z,83.12
2024-04-02T16:33:54.251Z,82.65
2024-04-02T16:39:19.518Z,81.38
2024-04-02T16:44:44.867Z,80.37
2024-04-02T16:50:10.165Z,79.74
2024-04-02T16:55:35.545Z,79.23
2024-04-02T17:01:00.842Z,79.25
2024-04-02T17:06:27.965Z,79.02
2024-04-02T17:11:53.251Z,78.67
2024-04-02T17:17:12.249Z,77.72
2024-04-02T17:22:37.729Z,77.23
2024-04-02T17:28:02.947Z,76.90
2024-04-02T17:33:28.315Z,76.12
2024-04-02T17:38:54.051Z,75.96
2024-04-02T17:44:18.562Z,75.21
2024-04-02T17:49:44.348Z,74.95
2024-04-02T17:55:12.287Z,74.95
2024-04-02T18:00:32.351Z,74.69
2024-04-02T18:05:46.696Z,74.14
2024-04-02T18:11:12.338Z,74.31
2024-04-02T18:16:37.756Z,74.01
2024-04-02T18:21:56.039Z,73.57
2024-04-02T18:27:22.324Z,73.49
2024-04-02T18:32:40.564Z,73.36
2024-04-02T18:38:05.917Z,73.50
2024-04-02T18:43:31.711Z,73.58
2024-04-02T18:48:57.843Z,73.81
2024-04-02T18:54:23.382Z,73.81
2024-04-02T18:59:40.317Z,74.25
2024-04-02T19:05:06.251Z,74.13
2024-04-02T19:10:32.122Z,74.22
2024-04-02T19:15:58.019Z,74.58
2024-04-02T19:21:23.791Z,74.31
2024-04-02T19:26:47.621Z,74.61
2024-04-02T19:31:56.493Z,74.68
2024-04-02T19:37:22.225Z,75.01
2024-04-02T19:42:48.160Z,75.28
2024-04-02T19:48:13.435Z,75.65
2024-04-02T19:53:38.931Z,75.58
2024-04-02T19:59:05.887Z,75.57
2024-04-02T20:04:31.906Z,75.75
2024-04-02T20:09:57.937Z,75.98
2024-04-02T20:15:23.253Z,76.47
2024-04-02T20:20:48.476Z,76.96
2024-04-02T20:26:22.401Z,77.73
2024-04-02T20:31:40.097Z,78.74
2024-04-02T20:37:06.734Z,79.49
2024-04-02T20:42:32.006Z,80.18
2024-04-02T20:48:05.852Z,80.53
2024-04-02T20:53:33.935Z,81.23
2024-04-02T20:58:51.298Z,81.59
2024-04-02T21:04:16.599Z,81.83
2024-04-02T21:09:41.901Z,82.07
2024-04-02T21:15:07.351Z,82.13
2024-04-02T21:20:31.421Z,82.06
2024-04-02T21:25:58.734Z,82.22
2024-04-02T21:31:24.709Z,82.17
2024-04-02T21:36:50.018Z,82.23
2024-04-02T21:42:15.353Z,82.53
2024-04-02T21:47:40.648Z,82.59
2024-04-02T21:53:05.930Z,82.88
2024-04-02T21:58:31.227Z,82.91
2024-04-02T22:03:56.975Z,82.96
2024-04-02T22:09:22.214Z,83.25
2024-04-02T22:14:48.311Z,83.20
2024-04-02T22:20:05.930Z,83.33
2024-04-02T22:25:31.296Z,83.34
2024-04-02T22:30:56.658Z,83.83
2024-04-02T22:36:21.932Z,84.10
2024-04-02T22:41:47.172Z,84.29
2024-04-02T22:47:12.469Z,84.58
2024-04-02T22:52:37.727Z,85.04
2024-04-02T22:57:55.342Z,84.93
2024-04-02T23:03:20.139Z,85.28
2024-04-02T23:08:45.481Z,85.41
2024-04-02T23:14:10.739Z,86.11
2024-04-02T23:19:36.134Z,86.70
2024-04-02T23:25:01.385Z,86.88
2024-04-02T23:30:28.299Z,86.98
2024-04-02T23:35:53.919Z,87.91
2024-04-02T23:41:19.179Z,88.12
2024-04-02T23:46:44.461Z,88.68
2024-04-02T23:52:09.681Z,89.77
2024-04-02T23:57:34.902Z,90.03
